KSTJ/STJ METAR and TAF weather

Enter ICAO airport designator
Station Type Date Time Source
KSTJ METAR 2020/06/06 20:53 UTC NOAA

KSTJ 062053Z 18010KT 10SM CLR 35/21 A2991 RMK AO2 SLP118 T03500211 56015


Station Type Date Time Source
KSTJ Decoded METAR 2020/06/06 20:53 UTC NOAA

ROSECRANS MEMORIAL AIRPORT, MO, United States (KSTJ) 39-46N 94-55W 247M
Jun 06, 2020 - 04:53 PM EDT / 2020.06.06 2053 UTC
Wind: from the S (180 degrees) at 12 MPH (10 KT):0
Visibility: 10 mile(s):0
Sky conditions: clear
Temperature: 95.0 F (35.0 C)
Heat index: 101.3 F (38.5 C):1
Dew Point: 70.0 F (21.1 C)
Relative Humidity: 44%
Pressure (altimeter): 29.91 in. Hg (1012 hPa)
Pressure tendency: 0.04 inches (1.5 hPa) lower than three hours ago
ob: KSTJ 062053Z 18010KT 10SM CLR 35/21 A2991 RMK AO2 SLP118 T03500211 56015
cycle: 21

Station Type Date Time Source
KSTJ TAF 2020/06/06 18:22 UTC NOAA

TAF KSTJ 061720Z 0618/0718 17009KT P6SM FEW250

Example: see airport list